sensor_id;sensor_type;location;lat;lon;timestamp;temperature;humidity
20773;DHT22;10546;50.674;4.616;2022-10-31T05:36:44;13.40;99.90
20773;DHT22;10546;50.674;4.616;2022-10-31T05:39:10;13.50;99.90
20773;DHT22;10546;50.674;4.616;2022-10-31T05:41:39;13.50;99.90
20773;DHT22;10546;50.674;4.616;2022-10-31T05:44:08;13.60;99.90
20773;DHT22;10546;50.674;4.616;2022-10-31T05:46:33;13.50;99.90
20773;DHT22;10546;50.674;4.616;2022-10-31T05:48:59;13.50;99.90
20773;DHT22;10546;50.674;4.616;2022-10-31T05:51:25;13.50;99.90
20773;DHT22;10546;50.674;4.616;2022-10-31T05:53:50;13.50;99.90
20773;DHT22;10546;50.674;4.616;2022-10-31T05:56:20;13.50;99.90
20773;DHT22;10546;50.674;4.616;2022-10-31T05:58:52;13.60;99.90
20773;DHT22;10546;50.674;4.616;2022-10-31T06:01:20;13.60;99.90
20773;DHT22;10546;50.674;4.616;2022-10-31T06:03:47;13.70;99.90
20773;DHT22;10546;50.674;4.616;2022-10-31T06:06:14;13.70;99.90
20773;DHT22;10546;50.674;4.616;2022-10-31T06:08:40;13.70;99.90
20773;DHT22;10546;50.674;4.616;2022-10-31T06:11:06;13.70;99.90
20773;DHT22;10546;50.674;4.616;2022-10-31T06:13:32;13.90;99.90
20773;DHT22;10546;50.674;4.616;2022-10-31T06:15:58;13.80;99.90
20773;DHT22;10546;50.674;4.616;2022-10-31T06:18:24;13.90;99.90
20773;DHT22;10546;50.674;4.616;2022-10-31T06:20:50;13.80;99.90
20773;DHT22;10546;50.674;4.616;2022-10-31T06:23:16;13.90;99.90
20773;DHT22;10546;50.674;4.616;2022-10-31T06:25:51;14.00;99.90
20773;DHT22;10546;50.674;4.616;2022-10-31T06:28:24;13.90;99.90
20773;DHT22;10546;50.674;4.616;2022-10-31T06:30:50;13.90;99.90
20773;DHT22;10546;50.674;4.616;2022-10-31T06:33:23;14.00;99.90
20773;DHT22;10546;50.674;4.616;2022-10-31T06:35:49;14.00;99.90
20773;DHT22;10546;50.674;4.616;2022-10-31T06:38:15;14.00;99.90
20773;DHT22;10546;50.674;4.616;2022-10-31T06:40:43;13.90;99.90
20773;DHT22;10546;50.674;4.616;2022-10-31T06:43:12;14.00;99.90
20773;DHT22;10546;50.674;4.616;2022-10-31T06:45:42;14.00;99.90
20773;DHT22;10546;50.674;4.616;2022-10-31T06:48:08;14.00;99.90
20773;DHT22;10546;50.674;4.616;2022-10-31T06:50:34;14.10;99.90
20773;DHT22;10546;50.674;4.616;2022-10-31T06:53:03;14.20;99.90
20773;DHT22;10546;50.674;4.616;2022-10-31T06:55:52;14.20;99.90
20773;DHT22;10546;50.674;4.616;2022-10-31T06:58:20;14.30;99.90
20773;DHT22;10546;50.674;4.616;2022-10-31T07:00:58;14.20;99.90
20773;DHT22;10546;50.674;4.616;2022-10-31T07:03:26;14.20;99.90
20773;DHT22;10546;50.674;4.616;2022-10-31T07:05:59;14.10;99.90
20773;DHT22;10546;50.674;4.616;2022-10-31T07:08:27;14.10;99.90
20773;DHT22;10546;50.674;4.616;2022-10-31T07:10:57;14.20;99.90
20773;DHT22;10546;50.674;4.616;2022-10-31T07:13:23;14.30;99.90
20773;DHT22;10546;50.674;4.616;2022-10-31T07:16:01;14.40;99.90
20773;DHT22;10546;50.674;4.616;2022-10-31T07:18:39;14.30;99.90
20773;DHT22;10546;50.674;4.616;2022-10-31T07:21:06;14.20;99.90
20773;DHT22;10546;50.674;4.616;2022-10-31T07:23:49;14.20;99.90
20773;DHT22;10546;50.674;4.616;2022-10-31T07:26:15;14.30;99.90
20773;DHT22;10546;50.674;4.616;2022-10-31T07:28:41;14.40;99.90
20773;DHT22;10546;50.674;4.616;2022-10-31T07:31:09;14.30;99.90
20773;DHT22;10546;50.674;4.616;2022-10-31T07:33:38;14.40;99.90
20773;DHT22;10546;50.674;4.616;2022-10-31T07:36:05;14.20;99.90
20773;DHT22;10546;50.674;4.616;2022-10-31T07:38:39;14.00;99.90
20773;DHT22;10546;50.674;4.616;2022-10-31T07:41:04;14.00;99.90
20773;DHT22;10546;50.674;4.616;2022-10-31T07:43:36;14.10;99.90
20773;DHT22;10546;50.674;4.616;2022-10-31T07:46:03;14.30;99.90
20773;DHT22;10546;50.674;4.616;2022-10-31T07:48:29;14.40;99.90
20773;DHT22;10546;50.674;4.616;2022-10-31T07:50:55;14.50;99.90
20773;DHT22;10546;50.674;4.616;2022-10-31T07:53:20;14.60;99.90
20773;DHT22;10546;50.674;4.616;2022-10-31T07:55:48;14.60;99.90
20773;DHT22;10546;50.674;4.616;2022-10-31T07:58:17;14.70;99.90
20773;DHT22;10546;50.674;4.616;2022-10-31T08:00:59;14.80;99.90
20773;DHT22;10546;50.674;4.616;2022-10-31T08:03:27;14.70;99.90
20773;DHT22;10546;50.674;4.616;2022-10-31T08:05:53;14.90;99.90
20773;DHT22;10546;50.674;4.616;2022-10-31T08:08:18;14.70;99.90
20773;DHT22;10546;50.674;4.616;2022-10-31T08:10:49;14.60;99.90
20773;DHT22;10546;50.674;4.616;2022-10-31T08:13:16;14.70;99.90
20773;DHT22;10546;50.674;4.616;2022-10-31T08:15:51;14.80;99.90
20773;DHT22;10546;50.674;4.616;2022-10-31T08:18:20;14.70;99.90
20773;DHT22;10546;50.674;4.616;2022-10-31T08:20:48;14.50;99.90
20773;DHT22;10546;50.674;4.616;2022-10-31T08:23:17;14.50;99.90
20773;DHT22;10546;50.674;4.616;2022-10-31T08:26:01;14.50;99.90
20773;DHT22;10546;50.674;4.616;2022-10-31T08:28:28;14.50;99.90
20773;DHT22;10546;50.674;4.616;2022-10-31T08:30:57;14.50;99.90
20773;DHT22;10546;50.674;4.616;2022-10-31T08:33:23;14.40;99.90
20773;DHT22;10546;50.674;4.616;2022-10-31T08:35:48;14.50;99.90
20773;DHT22;10546;50.674;4.616;2022-10-31T08:38:15;14.60;99.90
20773;DHT22;10546;50.674;4.616;2022-10-31T08:40:41;14.60;99.90
20773;DHT22;10546;50.674;4.616;2022-10-31T08:43:14;14.80;99.90
20773;DHT22;10546;50.674;4.616;2022-10-31T08:45:41;14.90;99.90
20773;DHT22;10546;50.674;4.616;2022-10-31T08:48:10;15.10;99.90
20773;DHT22;10546;50.674;4.616;2022-10-31T08:50:37;15.30;99.90
20773;DHT22;10546;50.674;4.616;2022-10-31T08:53:04;15.50;99.90
20773;DHT22;10546;50.674;4.616;2022-10-31T08:55:30;15.50;99.90
20773;DHT22;10546;50.674;4.616;2022-10-31T08:57:59;15.60;99.90
20773;DHT22;10546;50.674;4.616;2022-10-31T09:00:25;15.70;99.90
20773;DHT22;10546;50.674;4.616;2022-10-31T09:02:57;15.70;99.90
20773;DHT22;10546;50.674;4.616;2022-10-31T09:05:23;15.80;99.90
20773;DHT22;10546;50.674;4.616;2022-10-31T09:07:49;16.10;99.90
20773;DHT22;10546;50.674;4.616;2022-10-31T09:10:15;16.10;99.90
20773;DHT22;10546;50.674;4.616;2022-10-31T09:12:40;16.20;99.90
20773;DHT22;10546;50.674;4.616;2022-10-31T09:15:07;16.40;99.90
20773;DHT22;10546;50.674;4.616;2022-10-31T09:17:33;16.30;99.90
20773;DHT22;10546;50.674;4.616;2022-10-31T09:19:59;16.50;99.90
20773;DHT22;10546;50.674;4.616;2022-10-31T09:22:24;16.50;99.90
20773;DHT22;10546;50.674;4.616;2022-10-31T09:24:50;16.50;99.90
20773;DHT22;10546;50.674;4.616;2022-10-31T09:27:15;16.60;99.90
20773;DHT22;10546;50.674;4.616;2022-10-31T09:29:41;16.70;99.90
20773;DHT22;10546;50.674;4.616;2022-10-31T09:32:06;16.80;99.90
20773;DHT22;10546;50.674;4.616;2022-10-31T09:34:32;16.70;99.90
20773;DHT22;10546;50.674;4.616;2022-10-31T09:36:58;16.70;99.90
20773;DHT22;10546;50.674;4.616;2022-10-31T09:39:23;16.80;99.90
20773;DHT22;10546;50.674;4.616;2022-10-31T09:50:48;17.10;99.90
20773;DHT22;10546;50.674;4.616;2022-10-31T09:53:25;17.00;99.90
20773;DHT22;10546;50.674;4.616;2022-10-31T09:55:53;17.00;99.90
20773;DHT22;10546;50.674;4.616;2022-10-31T09:58:40;16.90;99.90
20773;DHT22;10546;50.674;4.616;2022-10-31T10:04:44;16.90;99.90
20773;DHT22;10546;50.674;4.616;2022-10-31T10:09:44;17.00;99.90
20773;DHT22;10546;50.674;4.616;2022-10-31T10:15:58;17.30;99.90
20773;DHT22;10546;50.674;4.616;2022-10-31T10:18:55;17.50;99.90
20773;DHT22;10546;50.674;4.616;2022-10-31T10:21:56;17.70;99.90
20773;DHT22;10546;50.674;4.616;2022-10-31T10:30:02;17.60;99.90
20773;DHT22;10546;50.674;4.616;2022-10-31T10:32:40;18.00;99.90
20773;DHT22;10546;50.674;4.616;2022-10-31T10:35:22;18.40;99.90
20773;DHT22;10546;50.674;4.616;2022-10-31T10:37:52;19.00;99.90
20773;DHT22;10546;50.674;4.616;2022-10-31T10:40:27;19.40;99.90
20773;DHT22;10546;50.674;4.616;2022-10-31T10:46:25;20.30;99.90
20773;DHT22;10546;50.674;4.616;2022-10-31T10:49:23;20.70;99.90
20773;DHT22;10546;50.674;4.616;2022-10-31T10:54:55;21.40;99.90
20773;DHT22;10546;50.674;4.616;2022-10-31T11:00:17;21.10;99.90
20773;DHT22;10546;50.674;4.616;2022-10-31T11:02:42;21.10;99.90
20773;DHT22;10546;50.674;4.616;2022-10-31T11:05:19;20.90;99.90
20773;DHT22;10546;50.674;4.616;2022-10-31T11:07:46;20.90;99.90
20773;DHT22;10546;50.674;4.616;2022-10-31T11:10:14;20.90;99.90
20773;DHT22;10546;50.674;4.616;2022-10-31T11:12:41;21.10;99.90
20773;DHT22;10546;50.674;4.616;2022-10-31T11:15:21;21.60;99.90
20773;DHT22;10546;50.674;4.616;2022-10-31T11:17:52;21.70;99.90
20773;DHT22;10546;50.674;4.616;2022-10-31T11:22:48;21.40;99.90
20773;DHT22;10546;50.674;4.616;2022-10-31T11:25:32;21.40;99.90
20773;DHT22;10546;50.674;4.616;2022-10-31T11:28:10;21.60;99.90
20773;DHT22;10546;50.674;4.616;2022-10-31T11:31:28;22.10;99.90
20773;DHT22;10546;50.674;4.616;2022-10-31T11:35:54;21.20;99.90
20773;DHT22;10546;50.674;4.616;2022-10-31T11:38:24;21.40;99.90
20773;DHT22;10546;50.674;4.616;2022-10-31T11:40:56;21.60;99.90
20773;DHT22;10546;50.674;4.616;2022-10-31T11:43:24;21.80;99.90
20773;DHT22;10546;50.674;4.616;2022-10-31T11:45:50;21.80;99.90
20773;DHT22;10546;50.674;4.616;2022-10-31T11:48:21;21.60;99.90
20773;DHT22;10546;50.674;4.616;2022-10-31T11:50:51;21.90;99.90
20773;DHT22;10546;50.674;4.616;2022-10-31T11:53:28;22.40;99.90
20773;DHT22;10546;50.674;4.616;2022-10-31T11:56:15;22.30;99.90
20773;DHT22;10546;50.674;4.616;2022-10-31T11:58:41;22.10;99.90
20773;DHT22;10546;50.674;4.616;2022-10-31T12:01:26;21.60;99.90
20773;DHT22;10546;50.674;4.616;2022-10-31T12:04:11;21.70;99.90
20773;DHT22;10546;50.674;4.616;2022-10-31T12:06:39;21.90;99.90
20773;DHT22;10546;50.674;4.616;2022-10-31T12:09:26;21.90;99.90
20773;DHT22;10546;50.674;4.616;2022-10-31T12:15:37;21.20;99.90
20773;DHT22;10546;50.674;4.616;2022-10-31T12:26:30;20.80;99.90
20773;DHT22;10546;50.674;4.616;2022-10-31T12:29:16;21.00;99.90
20773;DHT22;10546;50.674;4.616;2022-10-31T12:48:56;21.00;99.90
20773;DHT22;10546;50.674;4.616;2022-10-31T12:51:41;21.00;99.90
20773;DHT22;10546;50.674;4.616;2022-10-31T12:54:31;21.00;99.90
20773;DHT22;10546;50.674;4.616;2022-10-31T12:57:27;21.20;99.90
20773;DHT22;10546;50.674;4.616;2022-10-31T13:00:10;21.10;99.90
20773;DHT22;10546;50.674;4.616;2022-10-31T13:02:42;21.10;99.90
20773;DHT22;10546;50.674;4.616;2022-10-31T13:05:30;21.20;99.90
20773;DHT22;10546;50.674;4.616;2022-10-31T13:08:12;21.30;99.90
20773;DHT22;10546;50.674;4.616;2022-10-31T13:10:58;21.10;99.90
20773;DHT22;10546;50.674;4.616;2022-10-31T13:13:35;21.10;99.90
20773;DHT22;10546;50.674;4.616;2022-10-31T13:19:03;21.10;99.90
20773;DHT22;10546;50.674;4.616;2022-10-31T13:21:49;21.10;99.90
20773;DHT22;10546;50.674;4.616;2022-10-31T13:24:23;20.70;99.90
20773;DHT22;10546;50.674;4.616;2022-10-31T13:26:54;20.80;99.90
20773;DHT22;10546;50.674;4.616;2022-10-31T13:29:25;20.80;99.90
20773;DHT22;10546;50.674;4.616;2022-10-31T13:31:52;20.80;99.90
20773;DHT22;10546;50.674;4.616;2022-10-31T13:37:05;20.70;99.90
20773;DHT22;10546;50.674;4.616;2022-10-31T13:43:44;20.60;99.90
20773;DHT22;10546;50.674;4.616;2022-10-31T13:45:52;20.30;99.90
20773;DHT22;10546;50.674;4.616;2022-10-31T13:48:34;20.20;99.90
20773;DHT22;10546;50.674;4.616;2022-10-31T13:51:08;20.00;99.90
20773;DHT22;10546;50.674;4.616;2022-10-31T13:53:44;20.10;99.90
20773;DHT22;10546;50.674;4.616;2022-10-31T13:56:18;20.00;99.90
20773;DHT22;10546;50.674;4.616;2022-10-31T14:01:33;19.90;99.90
20773;DHT22;10546;50.674;4.616;2022-10-31T14:04:19;19.90;99.90
20773;DHT22;10546;50.674;4.616;2022-10-31T14:07:06;19.80;99.90
20773;DHT22;10546;50.674;4.616;2022-10-31T14:09:34;19.70;99.90
20773;DHT22;10546;50.674;4.616;2022-10-31T14:13:02;19.80;99.90
20773;DHT22;10546;50.674;4.616;2022-10-31T14:15:04;19.80;99.90
20773;DHT22;10546;50.674;4.616;2022-10-31T14:17:46;19.70;99.90
20773;DHT22;10546;50.674;4.616;2022-10-31T14:22:41;19.80;99.90
20773;DHT22;10546;50.674;4.616;2022-10-31T14:27:51;20.00;99.90
20773;DHT22;10546;50.674;4.616;2022-10-31T14:30:23;19.90;99.90
20773;DHT22;10546;50.674;4.616;2022-10-31T14:32:58;19.90;99.90
20773;DHT22;10546;50.674;4.616;2022-10-31T14:35:37;19.60;99.90
20773;DHT22;10546;50.674;4.616;2022-10-31T14:38:23;19.50;99.90
20773;DHT22;10546;50.674;4.616;2022-10-31T14:46:48;19.80;99.90
20773;DHT22;10546;50.674;4.616;2022-10-31T14:49:38;19.80;99.90
20773;DHT22;10546;50.674;4.616;2022-10-31T14:52:10;19.70;99.90
20773;DHT22;10546;50.674;4.616;2022-10-31T14:54:44;19.60;99.90
20773;DHT22;10546;50.674;4.616;2022-10-31T14:59:48;19.90;99.90
20773;DHT22;10546;50.674;4.616;2022-10-31T15:05:07;20.00;99.90
20773;DHT22;10546;50.674;4.616;2022-10-31T15:07:33;20.00;99.90
20773;DHT22;10546;50.674;4.616;2022-10-31T15:10:23;20.00;99.90
20773;DHT22;10546;50.674;4.616;2022-10-31T15:12:50;20.10;99.90
20773;DHT22;10546;50.674;4.616;2022-10-31T15:15:22;20.20;99.90
20773;DHT22;10546;50.674;4.616;2022-10-31T15:17:58;20.20;99.90
20773;DHT22;10546;50.674;4.616;2022-10-31T15:20:27;20.10;99.90
20773;DHT22;10546;50.674;4.616;2022-10-31T15:22:55;20.10;99.90
20773;DHT22;10546;50.674;4.616;2022-10-31T15:25:23;20.00;99.90
20773;DHT22;10546;50.674;4.616;2022-10-31T15:27:51;19.90;99.90
20773;DHT22;10546;50.674;4.616;2022-10-31T15:32:47;19.80;99.90
20773;DHT22;10546;50.674;4.616;2022-10-31T15:35:21;19.80;99.90
20773;DHT22;10546;50.674;4.616;2022-10-31T15:37:47;19.70;99.90
20773;DHT22;10546;50.674;4.616;2022-10-31T15:40:18;19.60;99.90
20773;DHT22;10546;50.674;4.616;2022-10-31T15:42:52;19.60;99.90
20773;DHT22;10546;50.674;4.616;2022-10-31T15:45:22;19.60;99.90
20773;DHT22;10546;50.674;4.616;2022-10-31T15:47:55;19.50;99.90
20773;DHT22;10546;50.674;4.616;2022-10-31T15:52:52;19.40;99.90
20773;DHT22;10546;50.674;4.616;2022-10-31T15:55:26;19.30;99.90
20773;DHT22;10546;50.674;4.616;2022-10-31T15:57:56;19.10;99.90
20773;DHT22;10546;50.674;4.616;2022-10-31T16:00:34;19.10;99.90
20773;DHT22;10546;50.674;4.616;2022-10-31T16:03:24;19.10;99.90
20773;DHT22;10546;50.674;4.616;2022-10-31T16:05:54;19.00;99.90
20773;DHT22;10546;50.674;4.616;2022-10-31T16:10:56;19.00;99.90
20773;DHT22;10546;50.674;4.616;2022-10-31T16:13:33;18.80;99.90
20773;DHT22;10546;50.674;4.616;2022-10-31T16:16:11;18.80;99.90
20773;DHT22;10546;50.674;4.616;2022-10-31T16:18:37;18.70;99.90
20773;DHT22;10546;50.674;4.616;2022-10-31T16:21:04;18.70;99.90
20773;DHT22;10546;50.674;4.616;2022-10-31T16:23:31;18.70;99.90
20773;DHT22;10546;50.674;4.616;2022-10-31T16:25:56;18.50;99.90
20773;DHT22;10546;50.674;4.616;2022-10-31T16:28:24;18.50;99.90
20773;DHT22;10546;50.674;4.616;2022-10-31T16:30:52;18.40;99.90
20773;DHT22;10546;50.674;4.616;2022-10-31T16:33:28;18.40;99.90
20773;DHT22;10546;50.674;4.616;2022-10-31T16:35:55;18.30;99.90
20773;DHT22;10546;50.674;4.616;2022-10-31T16:38:21;18.20;99.90
20773;DHT22;10546;50.674;4.616;2022-10-31T16:40:47;18.30;99.90
20773;DHT22;10546;50.674;4.616;2022-10-31T16:43:16;18.30;99.90
20773;DHT22;10546;50.674;4.616;2022-10-31T16:46:01;18.20;99.90
20773;DHT22;10546;50.674;4.616;2022-10-31T16:48:26;18.20;99.90
20773;DHT22;10546;50.674;4.616;2022-10-31T16:50:52;18.10;99.90
20773;DHT22;10546;50.674;4.616;2022-10-31T16:53:18;18.00;99.90
20773;DHT22;10546;50.674;4.616;2022-10-31T16:58:21;18.00;99.90
20773;DHT22;10546;50.674;4.616;2022-10-31T17:00:48;17.90;99.90
20773;DHT22;10546;50.674;4.616;2022-10-31T17:03:14;17.80;99.90
20773;DHT22;10546;50.674;4.616;2022-10-31T17:05:39;17.90;99.90
20773;DHT22;10546;50.674;4.616;2022-10-31T17:08:05;17.90;99.90
20773;DHT22;10546;50.674;4.616;2022-10-31T17:10:31;17.80;99.90
20773;DHT22;10546;50.674;4.616;2022-10-31T17:12:57;17.70;99.90
20773;DHT22;10546;50.674;4.616;2022-10-31T17:15:26;17.70;99.90
20773;DHT22;10546;50.674;4.616;2022-10-31T17:17:52;17.60;99.90
20773;DHT22;10546;50.674;4.616;2022-10-31T17:20:27;17.50;99.90
20773;DHT22;10546;50.674;4.616;2022-10-31T17:22:52;17.50;99.90
20773;DHT22;10546;50.674;4.616;2022-10-31T17:25:21;17.40;99.90
20773;DHT22;10546;50.674;4.616;2022-10-31T17:27:47;17.30;99.90
20773;DHT22;10546;50.674;4.616;2022-10-31T17:30:13;17.30;99.90
20773;DHT22;10546;50.674;4.616;2022-10-31T17:32:40;17.30;99.90
20773;DHT22;10546;50.674;4.616;2022-10-31T17:35:08;17.30;99.90
20773;DHT22;10546;50.674;4.616;2022-10-31T17:37:34;17.30;99.90
20773;DHT22;10546;50.674;4.616;2022-10-31T17:40:00;17.20;99.90
20773;DHT22;10546;50.674;4.616;2022-10-31T17:42:25;17.20;99.90
20773;DHT22;10546;50.674;4.616;2022-10-31T17:44:51;17.20;99.90
20773;DHT22;10546;50.674;4.616;2022-10-31T17:47:16;17.20;99.90
20773;DHT22;10546;50.674;4.616;2022-10-31T17:49:42;17.20;99.90
20773;DHT22;10546;50.674;4.616;2022-10-31T17:52:08;17.20;99.90
20773;DHT22;10546;50.674;4.616;2022-10-31T17:54:34;17.20;99.90
20773;DHT22;10546;50.674;4.616;2022-10-31T17:56:59;17.10;99.90
20773;DHT22;10546;50.674;4.616;2022-10-31T17:59:25;17.10;99.90
20773;DHT22;10546;50.674;4.616;2022-10-31T18:01:53;17.10;99.90
20773;DHT22;10546;50.674;4.616;2022-10-31T18:04:18;17.10;99.90
20773;DHT22;10546;50.674;4.616;2022-10-31T18:06:44;17.10;99.90
20773;DHT22;10546;50.674;4.616;2022-10-31T18:09:09;17.10;99.90
20773;DHT22;10546;50.674;4.616;2022-10-31T18:11:35;17.00;99.90
20773;DHT22;10546;50.674;4.616;2022-10-31T18:14:01;17.10;99.90
20773;DHT22;10546;50.674;4.616;2022-10-31T18:16:26;17.10;99.90
20773;DHT22;10546;50.674;4.616;2022-10-31T18:18:54;17.10;99.90
20773;DHT22;10546;50.674;4.616;2022-10-31T18:21:21;17.20;99.90
20773;DHT22;10546;50.674;4.616;2022-10-31T18:23:46;17.10;99.90
20773;DHT22;10546;50.674;4.616;2022-10-31T18:26:12;17.10;99.90
20773;DHT22;10546;50.674;4.616;2022-10-31T18:28:38;17.20;99.90
20773;DHT22;10546;50.674;4.616;2022-10-31T18:31:04;17.10;99.90
20773;DHT22;10546;50.674;4.616;2022-10-31T18:33:30;17.10;99.90
20773;DHT22;10546;50.674;4.616;2022-10-31T18:35:55;17.10;99.90
20773;DHT22;10546;50.674;4.616;2022-10-31T18:38:21;17.10;99.90
20773;DHT22;10546;50.674;4.616;2022-10-31T18:40:47;17.00;99.90
20773;DHT22;10546;50.674;4.616;2022-10-31T18:43:16;17.00;99.90
20773;DHT22;10546;50.674;4.616;2022-10-31T18:45:42;17.10;99.90
20773;DHT22;10546;50.674;4.616;2022-10-31T18:48:11;17.10;99.90
20773;DHT22;10546;50.674;4.616;2022-10-31T18:50:38;17.10;99.90
20773;DHT22;10546;50.674;4.616;2022-10-31T18:53:04;17.10;99.90
20773;DHT22;10546;50.674;4.616;2022-10-31T18:55:30;17.00;99.90
20773;DHT22;10546;50.674;4.616;2022-10-31T18:57:55;17.00;99.90
20773;DHT22;10546;50.674;4.616;2022-10-31T19:00:21;17.10;99.90
20773;DHT22;10546;50.674;4.616;2022-10-31T19:02:47;17.10;99.90
20773;DHT22;10546;50.674;4.616;2022-10-31T19:05:12;17.10;99.90
20773;DHT22;10546;50.674;4.616;2022-10-31T19:07:38;17.10;99.90
20773;DHT22;10546;50.674;4.616;2022-10-31T19:10:04;17.10;99.90
20773;DHT22;10546;50.674;4.616;2022-10-31T19:12:31;17.10;99.90
20773;DHT22;10546;50.674;4.616;2022-10-31T19:14:57;17.10;99.90
20773;DHT22;10546;50.674;4.616;2022-10-31T19:17:24;17.10;99.90
20773;DHT22;10546;50.674;4.616;2022-10-31T19:19:49;17.10;99.90
20773;DHT22;10546;50.674;4.616;2022-10-31T19:22:15;17.10;99.90
20773;DHT22;10546;50.674;4.616;2022-10-31T19:24:41;17.20;99.90
20773;DHT22;10546;50.674;4.616;2022-10-31T19:27:08;17.10;99.90
20773;DHT22;10546;50.674;4.616;2022-10-31T19:29:34;17.00;99.90
20773;DHT22;10546;50.674;4.616;2022-10-31T19:32:00;17.10;99.90
20773;DHT22;10546;50.674;4.616;2022-10-31T19:34:26;17.00;99.90
20773;DHT22;10546;50.674;4.616;2022-10-31T19:36:52;17.10;99.90
20773;DHT22;10546;50.674;4.616;2022-10-31T19:39:17;17.10;99.90
20773;DHT22;10546;50.674;4.616;2022-10-31T19:41:43;17.10;99.90
20773;DHT22;10546;50.674;4.616;2022-10-31T19:44:09;17.10;99.90
20773;DHT22;10546;50.674;4.616;2022-10-31T19:46:34;17.10;99.90
20773;DHT22;10546;50.674;4.616;2022-10-31T19:49:01;17.10;99.90
20773;DHT22;10546;50.674;4.616;2022-10-31T19:51:27;17.20;99.90
20773;DHT22;10546;50.674;4.616;2022-10-31T19:53:53;17.20;99.90
20773;DHT22;10546;50.674;4.616;2022-10-31T19:56:21;17.30;99.90
20773;DHT22;10546;50.674;4.616;2022-10-31T19:58:47;17.20;99.90
20773;DHT22;10546;50.674;4.616;2022-10-31T20:01:14;17.20;99.90
20773;DHT22;10546;50.674;4.616;2022-10-31T20:03:41;17.20;99.90
20773;DHT22;10546;50.674;4.616;2022-10-31T20:08:44;17.30;99.90
20773;DHT22;10546;50.674;4.616;2022-10-31T20:11:10;17.30;99.90
20773;DHT22;10546;50.674;4.616;2022-10-31T20:13:35;17.30;99.90
20773;DHT22;10546;50.674;4.616;2022-10-31T20:16:04;17.40;99.90
20773;DHT22;10546;50.674;4.616;2022-10-31T20:18:30;17.60;99.90
20773;DHT22;10546;50.674;4.616;2022-10-31T20:21:13;17.50;99.90
20773;DHT22;10546;50.674;4.616;2022-10-31T20:23:40;17.50;99.90
20773;DHT22;10546;50.674;4.616;2022-10-31T20:26:09;17.60;99.90
20773;DHT22;10546;50.674;4.616;2022-10-31T20:28:36;17.70;99.90
20773;DHT22;10546;50.674;4.616;2022-10-31T20:31:12;17.70;99.90
20773;DHT22;10546;50.674;4.616;2022-10-31T20:33:38;17.60;99.90
20773;DHT22;10546;50.674;4.616;2022-10-31T20:36:05;17.60;99.90
20773;DHT22;10546;50.674;4.616;2022-10-31T20:38:31;17.50;99.90
20773;DHT22;10546;50.674;4.616;2022-10-31T20:41:01;17.60;99.90
20773;DHT22;10546;50.674;4.616;2022-10-31T20:43:27;17.50;99.90
20773;DHT22;10546;50.674;4.616;2022-10-31T20:46:01;17.60;99.90
20773;DHT22;10546;50.674;4.616;2022-10-31T20:48:28;17.70;99.90
20773;DHT22;10546;50.674;4.616;2022-10-31T20:51:01;17.60;99.90
20773;DHT22;10546;50.674;4.616;2022-10-31T20:53:27;17.50;99.90
20773;DHT22;10546;50.674;4.616;2022-10-31T20:56:20;17.50;99.90
20773;DHT22;10546;50.674;4.616;2022-10-31T20:58:47;17.50;99.90
20773;DHT22;10546;50.674;4.616;2022-10-31T21:01:24;17.50;99.90
20773;DHT22;10546;50.674;4.616;2022-10-31T21:03:51;17.50;99.90
20773;DHT22;10546;50.674;4.616;2022-10-31T21:06:18;17.40;99.90
20773;DHT22;10546;50.674;4.616;2022-10-31T21:08:44;17.50;99.90
20773;DHT22;10546;50.674;4.616;2022-10-31T21:11:12;17.50;99.90
20773;DHT22;10546;50.674;4.616;2022-10-31T21:13:41;17.50;99.90
20773;DHT22;10546;50.674;4.616;2022-10-31T21:16:09;17.50;99.90
20773;DHT22;10546;50.674;4.616;2022-10-31T21:18:35;17.50;99.90
20773;DHT22;10546;50.674;4.616;2022-10-31T21:21:06;17.50;99.90
20773;DHT22;10546;50.674;4.616;2022-10-31T21:23:32;17.50;99.90
20773;DHT22;10546;50.674;4.616;2022-10-31T21:26:06;17.50;99.90
20773;DHT22;10546;50.674;4.616;2022-10-31T21:28:32;17.60;99.90
20773;DHT22;10546;50.674;4.616;2022-10-31T21:30:58;17.70;99.90
20773;DHT22;10546;50.674;4.616;2022-10-31T21:33:24;17.70;99.90
20773;DHT22;10546;50.674;4.616;2022-10-31T21:35:50;17.70;99.90
20773;DHT22;10546;50.674;4.616;2022-10-31T21:38:17;17.80;99.90
20773;DHT22;10546;50.674;4.616;2022-10-31T21:40:43;17.80;99.90
20773;DHT22;10546;50.674;4.616;2022-10-31T21:43:08;17.70;99.90
20773;DHT22;10546;50.674;4.616;2022-10-31T21:45:34;17.80;99.90
20773;DHT22;10546;50.674;4.616;2022-10-31T21:48:00;17.70;99.90
20773;DHT22;10546;50.674;4.616;2022-10-31T21:50:26;17.70;99.90
20773;DHT22;10546;50.674;4.616;2022-10-31T21:52:52;17.60;99.90
20773;DHT22;10546;50.674;4.616;2022-10-31T21:55:17;17.60;99.90
20773;DHT22;10546;50.674;4.616;2022-10-31T21:57:43;17.60;99.90
20773;DHT22;10546;50.674;4.616;2022-10-31T22:00:09;17.60;99.90
20773;DHT22;10546;50.674;4.616;2022-10-31T22:02:35;17.50;99.90
20773;DHT22;10546;50.674;4.616;2022-10-31T22:05:01;17.50;99.90
20773;DHT22;10546;50.674;4.616;2022-10-31T22:07:26;17.50;99.90
20773;DHT22;10546;50.674;4.616;2022-10-31T22:09:52;17.50;99.90
20773;DHT22;10546;50.674;4.616;2022-10-31T22:12:18;17.40;99.90
20773;DHT22;10546;50.674;4.616;2022-10-31T22:14:44;17.40;99.90
20773;DHT22;10546;50.674;4.616;2022-10-31T22:17:09;17.40;99.90
